Time;durP1;ratioP1;P1;durP2;ratioP2;P2;SDS_P1;SDS_P2;PMS_P1;PMS_P2;Temp;Humidity;BMP_temperature;BMP_pressure;BME280_temperature;BME280_humidity;BME280_pressure;Samples;Min_cycle;Max_cycle;Signal;HPM_P1;HPM_P2
2022/11/11 00:02:10;;;;;;;28.63;17.45;;;22.40;61.20;;;;;;5033357;28;20041;-71
2022/11/11 00:04:54;;;;;;;34.00;17.92;;;22.30;61.20;;;;;;5033500;28;20037;-70
2022/11/11 00:07:39;;;;;;;30.83;17.00;;;22.40;61.20;;;;;;5033147;28;20118;-70
2022/11/11 00:10:26;;;;;;;32.35;18.35;;;22.20;61.00;;;;;;5045555;28;20089;-71
2022/11/11 00:13:10;;;;;;;33.42;17.73;;;22.30;61.00;;;;;;5033187;28;20125;-72
2022/11/11 00:15:55;;;;;;;29.98;17.75;;;22.30;61.00;;;;;;5031069;28;20049;-71
2022/11/11 00:25:05;;;;;;;24.95;15.57;;;22.30;61.00;;;;;;5032641;28;20040;-71
2022/11/11 00:27:50;;;;;;;30.40;17.90;;;22.20;61.00;;;;;;5032862;28;20033;-70
2022/11/11 00:30:35;;;;;;;36.50;19.30;;;22.20;60.80;;;;;;5032891;28;20045;-71
2022/11/11 00:33:19;;;;;;;35.80;18.15;;;22.20;60.80;;;;;;5031998;28;20037;-70
2022/11/11 00:36:05;;;;;;;33.88;16.50;;;22.20;60.80;;;;;;5031947;28;20105;-69
2022/11/11 00:38:51;;;;;;;32.45;17.15;;;22.40;60.80;;;;;;5032156;28;20125;-70
2022/11/11 00:41:36;;;;;;;32.85;17.60;;;22.40;60.90;;;;;;5031672;28;20094;-70
2022/11/11 00:44:20;;;;;;;36.20;17.42;;;22.40;60.70;;;;;;5044254;28;20390;-71
2022/11/11 00:53:32;;;;;;;27.80;15.73;;;22.40;60.70;;;;;;5012039;28;20065;-70
2022/11/11 00:56:16;;;;;;;22.20;13.98;;;22.30;60.70;;;;;;5012464;28;20124;-70
2022/11/11 00:59:04;;;;;;;26.08;14.68;;;22.30;60.60;;;;;;5011675;28;20026;-71
2022/11/11 01:01:49;;;;;;;26.55;15.23;;;22.30;60.80;;;;;;5012551;28;20726;-70
2022/11/11 01:04:34;;;;;;;25.17;15.52;;;22.30;60.90;;;;;;5035887;28;20073;-71
2022/11/11 01:07:18;;;;;;;22.70;13.13;;;22.30;60.70;;;;;;5031950;28;20070;-70
2022/11/11 01:10:03;;;;;;;24.27;15.48;;;22.30;60.50;;;;;;5031985;28;20550;-70
2022/11/11 01:12:48;;;;;;;23.45;15.20;;;22.20;60.40;;;;;;5044216;28;20054;-70
2022/11/11 01:15:33;;;;;;;24.02;14.02;;;22.30;60.60;;;;;;5032031;28;20033;-71
2022/11/11 01:18:22;;;;;;;24.60;14.98;;;22.20;60.10;;;;;;5031393;28;20125;-72
2022/11/11 01:21:16;;;;;;;23.00;13.18;;;22.30;60.60;;;;;;5031260;28;20349;-70
2022/11/11 01:24:00;;;;;;;25.45;15.70;;;22.20;60.30;;;;;;5031438;28;20044;-69
2022/11/11 01:26:45;;;;;;;25.77;14.98;;;22.30;60.50;;;;;;5011929;28;20042;-71
2022/11/11 01:29:29;;;;;;;20.25;13.07;;;22.50;60.40;;;;;;5011863;28;20499;-70
2022/11/11 01:32:14;;;;;;;27.13;14.32;;;22.40;60.20;;;;;;5011734;28;20364;-71
2022/11/11 01:34:58;;;;;;;22.55;14.13;;;22.40;59.90;;;;;;5011755;28;20030;-70
2022/11/11 01:37:43;;;;;;;20.92;14.35;;;22.40;60.00;;;;;;5011876;28;20026;-70
2022/11/11 01:40:27;;;;;;;25.88;14.63;;;22.20;60.30;;;;;;5018300;28;20045;-71
2022/11/11 01:43:12;;;;;;;24.55;14.45;;;22.30;60.20;;;;;;5032003;28;20028;-70
2022/11/11 01:46:02;;;;;;;24.70;13.25;;;22.40;60.30;;;;;;5031474;28;20057;-71
2022/11/11 01:52:22;;;;;;;22.63;14.63;;;22.40;60.00;;;;;;5031445;28;20041;-70
2022/11/11 01:55:19;;;;;;;21.38;13.65;;;22.40;60.10;;;;;;5031347;28;20042;-70
2022/11/11 01:58:08;;;;;;;24.08;13.98;;;22.40;60.10;;;;;;5031534;28;20036;-70
2022/11/11 02:00:52;;;;;;;25.30;15.30;;;22.50;60.20;;;;;;5031177;28;20075;-71
2022/11/11 02:03:40;;;;;;;22.48;14.70;;;22.40;60.00;;;;;;5030983;28;20089;-71
2022/11/11 02:06:27;;;;;;;22.08;14.07;;;22.40;60.00;;;;;;5031341;28;20089;-71
2022/11/11 02:09:11;;;;;;;26.23;14.65;;;22.30;60.00;;;;;;5030810;28;20071;-71
2022/11/11 02:15:05;;;;;;;18.67;12.48;;;22.30;60.00;;;;;;5030420;28;20052;-70
2022/11/11 02:17:49;;;;;;;23.85;13.10;;;22.30;60.30;;;;;;5030834;28;20033;-70
2022/11/11 02:20:39;;;;;;;23.13;14.15;;;22.30;60.10;;;;;;5030489;28;20042;-71
2022/11/11 02:23:53;;;;;;;21.73;13.85;;;22.30;60.10;;;;;;5030450;28;20038;-72
2022/11/11 02:26:38;;;;;;;21.88;13.95;;;22.30;60.30;;;;;;5030562;28;20466;-70
2022/11/11 02:29:24;;;;;;;25.80;14.88;;;22.30;60.40;;;;;;5030875;28;20033;-71
2022/11/11 02:32:08;;;;;;;21.20;13.60;;;22.20;60.50;;;;;;5031026;28;20033;-71
2022/11/11 02:34:53;;;;;;;23.20;14.27;;;22.10;60.50;;;;;;5045346;28;20046;-71
2022/11/11 02:37:37;;;;;;;26.15;15.48;;;22.20;60.50;;;;;;5030701;28;20060;-69
2022/11/11 02:40:31;;;;;;;21.35;13.80;;;22.20;60.50;;;;;;5029924;28;20060;-70
2022/11/11 02:43:16;;;;;;;22.33;13.25;;;22.20;60.50;;;;;;5034320;28;20044;-72
2022/11/11 02:46:03;;;;;;;23.23;14.60;;;22.20;60.50;;;;;;5050877;28;20115;-71
2022/11/11 02:48:48;;;;;;;26.05;14.82;;;22.20;60.40;;;;;;5011215;28;20041;-70
2022/11/11 02:51:32;;;;;;;25.27;15.05;;;22.10;60.50;;;;;;5011056;28;20490;-71
2022/11/11 02:54:17;;;;;;;25.77;14.98;;;22.10;60.60;;;;;;5011000;28;20026;-71
2022/11/11 02:57:07;;;;;;;23.20;14.60;;;22.20;60.60;;;;;;5011189;28;20033;-71
2022/11/11 02:59:52;;;;;;;25.17;14.57;;;22.10;60.50;;;;;;5023836;28;20476;-70
2022/11/11 03:02:36;;;;;;;22.17;13.63;;;22.20;60.50;;;;;;5010955;28;20041;-71
2022/11/11 03:05:21;;;;;;;27.27;15.10;;;22.20;60.50;;;;;;5010821;28;20091;-71
2022/11/11 03:08:06;;;;;;;22.38;14.70;;;22.20;60.50;;;;;;5010542;28;20045;-71
2022/11/11 03:10:50;;;;;;;23.25;14.27;;;22.20;60.40;;;;;;5010819;28;20026;-71
2022/11/11 03:13:35;;;;;;;22.05;13.25;;;22.20;60.30;;;;;;5010600;28;20026;-71
2022/11/11 03:19:23;;;;;;;23.45;15.32;;;22.20;60.30;;;;;;5011006;28;20042;-71
2022/11/11 03:22:07;;;;;;;24.23;13.73;;;22.20;60.40;;;;;;5011228;28;20046;-71
2022/11/11 03:27:54;;;;;;;22.00;13.77;;;22.20;60.40;;;;;;5014347;28;20030;-71
2022/11/11 03:30:44;;;;;;;21.08;12.93;;;22.00;60.30;;;;;;5014712;28;20033;-71
2022/11/11 03:33:29;;;;;;;23.80;15.18;;;22.20;60.40;;;;;;5032825;28;20531;-71
2022/11/11 03:36:13;;;;;;;24.80;14.75;;;22.10;60.50;;;;;;5033874;28;20034;-71
2022/11/11 03:38:58;;;;;;;25.10;13.80;;;22.10;60.50;;;;;;5032759;28;20367;-71
2022/11/11 03:41:42;;;;;;;20.85;13.18;;;22.00;60.40;;;;;;5033026;28;20438;-73
2022/11/11 03:44:27;;;;;;;20.58;13.95;;;22.10;60.60;;;;;;5033638;28;20486;-71
2022/11/11 03:47:15;;;;;;;19.85;13.55;;;22.00;60.60;;;;;;5033669;28;20061;-71
2022/11/11 03:49:59;;;;;;;21.58;13.65;;;22.00;60.60;;;;;;5004588;28;20096;-70
2022/11/11 03:52:44;;;;;;;18.73;12.35;;;22.00;60.60;;;;;;5033684;28;20112;-69
2022/11/11 03:55:29;;;;;;;17.73;11.90;;;22.10;60.60;;;;;;5033857;28;20123;-71
2022/11/11 03:58:14;;;;;;;14.40;9.98;;;22.00;60.50;;;;;;5033529;28;20040;-71
2022/11/11 04:00:59;;;;;;;15.93;10.40;;;22.00;60.30;;;;;;5033216;28;20050;-71
2022/11/11 04:16:06;;;;;;;16.83;9.68;;;22.00;60.00;;;;;;5033209;28;20041;-71
2022/11/11 04:21:54;;;;;;;14.48;9.77;;;22.30;59.80;;;;;;5031892;28;20463;-71
2022/11/11 04:27:42;;;;;;;14.93;9.57;;;22.30;59.30;;;;;;5032944;28;20482;-71
2022/11/11 04:30:27;;;;;;;20.40;11.15;;;22.20;59.80;;;;;;5032889;28;20064;-71
2022/11/11 04:33:11;;;;;;;13.63;9.82;;;22.20;59.70;;;;;;5032657;28;20091;-71
2022/11/11 04:35:56;;;;;;;15.48;9.70;;;22.20;59.80;;;;;;5031455;28;20030;-71
2022/11/11 04:41:44;;;;;;;14.20;9.15;;;22.20;59.30;;;;;;5031752;28;20038;-71
2022/11/11 04:47:32;;;;;;;17.25;9.38;;;22.30;59.50;;;;;;5032353;28;20052;-71
2022/11/11 04:50:16;;;;;;;13.80;8.55;;;22.30;59.00;;;;;;5032121;28;20041;-69
2022/11/11 04:53:02;;;;;;;16.45;9.38;;;22.30;59.70;;;;;;5046716;28;20041;-69
2022/11/11 04:59:14;;;;;;;17.92;9.63;;;22.30;58.60;;;;;;5032269;28;20026;-72
2022/11/11 05:04:58;;;;;;;14.25;9.05;;;22.20;58.90;;;;;;5032288;28;20033;-70
2022/11/11 05:10:46;;;;;;;33.25;11.98;;;22.10;59.10;;;;;;5031804;28;20033;-72
2022/11/11 05:22:48;;;;;;;17.90;10.75;;;23.30;66.00;;;;;;5031166;28;20042;-70
2022/11/11 05:25:32;;;;;;;15.32;9.82;;;23.20;63.80;;;;;;5031625;28;20116;-70
2022/11/11 05:28:17;;;;;;;14.80;8.68;;;23.20;62.90;;;;;;5031180;28;20056;-69
2022/11/11 05:31:02;;;;;;;19.48;8.57;;;23.10;63.40;;;;;;5031016;28;20118;-70
2022/11/11 05:33:46;;;;;;;16.05;9.07;;;23.20;62.50;;;;;;5030106;28;20025;-70
2022/11/11 05:36:31;;;;;;;10.65;7.55;;;23.10;61.30;;;;;;5023599;28;20036;-70
2022/11/11 05:39:15;;;;;;;14.07;8.15;;;23.20;60.30;;;;;;5031217;28;20043;-70
2022/11/11 05:42:00;;;;;;;16.45;9.95;;;23.10;59.30;;;;;;5031087;28;20044;-71
2022/11/11 05:44:45;;;;;;;12.32;8.43;;;23.20;58.60;;;;;;5030766;28;20379;-69
2022/11/11 05:47:30;;;;;;;4.45;2.58;;;23.20;57.80;;;;;;5031381;28;20021;-70
2022/11/11 05:50:15;;;;;;;1.88;1.77;;;23.30;57.40;;;;;;5057701;28;20050;-71
2022/11/11 05:52:59;;;;;;;2.15;1.90;;;23.20;56.40;;;;;;5031393;28;20033;-70
2022/11/11 05:55:44;;;;;;;1.63;1.52;;;23.30;56.90;;;;;;5031261;28;20052;-70
2022/11/11 05:58:28;;;;;;;2.50;0.98;;;23.20;57.40;;;;;;5031180;28;20040;-71
2022/11/11 06:01:13;;;;;;;14.15;8.82;;;23.30;57.00;;;;;;5031173;28;20033;-70
2022/11/11 06:03:57;;;;;;;14.27;9.13;;;23.30;54.00;;;;;;5031327;28;20060;-70
2022/11/11 06:06:42;;;;;;;13.15;9.02;;;23.20;53.20;;;;;;5031044;28;20037;-70
2022/11/11 06:09:26;;;;;;;15.88;9.55;;;23.20;54.60;;;;;;5030764;28;20049;-70
2022/11/11 06:12:11;;;;;;;14.25;9.13;;;23.20;54.60;;;;;;5030890;28;20044;-69
2022/11/11 06:14:56;;;;;;;17.17;8.48;;;23.10;55.60;;;;;;5030873;28;20033;-70
2022/11/11 06:17:40;;;;;;;14.50;9.48;;;23.00;55.10;;;;;;5031288;28;20071;-69
2022/11/11 06:20:26;;;;;;;16.45;11.25;;;23.00;54.00;;;;;;5030988;28;20022;-70
2022/11/11 06:23:10;;;;;;;13.13;10.35;;;23.00;55.50;;;;;;5031080;28;20079;-69
2022/11/11 06:26:14;;;;;;;12.57;9.77;;;23.10;56.20;;;;;;5031560;28;20041;-70
2022/11/11 06:28:59;;;;;;;13.95;8.68;;;22.90;56.40;;;;;;5031172;28;20048;-70
2022/11/11 06:31:44;;;;;;;17.25;10.10;;;23.00;53.90;;;;;;5030022;28;20040;-70
2022/11/11 06:34:29;;;;;;;14.30;9.52;;;22.90;53.90;;;;;;5028258;28;20104;-71
2022/11/11 06:37:13;;;;;;;16.48;9.38;;;23.00;54.20;;;;;;5028462;28;20040;-71
2022/11/11 06:39:58;;;;;;;10.10;7.85;;;23.00;54.20;;;;;;5028461;28;20552;-71
2022/11/11 06:42:43;;;;;;;13.45;7.60;;;22.90;52.30;;;;;;5028368;28;20053;-70
2022/11/11 06:45:29;;;;;;;16.55;9.38;;;23.00;51.70;;;;;;5028288;28;20041;-70
2022/11/11 06:48:14;;;;;;;12.88;7.85;;;23.00;61.40;;;;;;5011775;28;20144;-71
2022/11/11 06:51:04;;;;;;;15.40;9.85;;;23.20;61.80;;;;;;5028182;28;20069;-71
2022/11/11 06:53:49;;;;;;;20.25;10.18;;;23.20;60.00;;;;;;5011473;28;20053;-71
2022/11/11 06:56:34;;;;;;;14.02;8.70;;;23.20;60.70;;;;;;5029637;28;20030;-71
2022/11/11 06:59:18;;;;;;;14.75;9.63;;;23.00;60.70;;;;;;5032155;28;20135;-70
2022/11/11 07:02:03;;;;;;;14.50;8.73;;;23.10;62.00;;;;;;5031890;28;20037;-71
2022/11/11 07:04:47;;;;;;;18.08;10.75;;;23.10;62.30;;;;;;5032665;28;20136;-71
2022/11/11 07:07:32;;;;;;;17.77;9.75;;;23.10;61.90;;;;;;5034763;28;20034;-71
2022/11/11 07:10:16;;;;;;;18.83;10.73;;;23.00;63.60;;;;;;5034461;28;20065;-71
2022/11/11 07:13:01;;;;;;;14.40;9.82;;;23.00;64.40;;;;;;5034522;28;20038;-70
2022/11/11 07:15:46;;;;;;;17.80;9.60;;;22.80;65.10;;;;;;5034520;28;20123;-71
2022/11/11 07:18:31;;;;;;;17.42;9.77;;;22.90;64.70;;;;;;5034379;28;20049;-71
2022/11/11 07:21:16;;;;;;;17.80;10.25;;;22.90;64.80;;;;;;5048638;28;20079;-71
2022/11/11 07:24:00;;;;;;;19.20;10.10;;;22.90;66.10;;;;;;5034354;28;20045;-71
2022/11/11 07:26:45;;;;;;;16.80;9.85;;;23.00;66.00;;;;;;5034600;28;20037;-70
2022/11/11 07:29:30;;;;;;;17.00;9.77;;;22.90;66.20;;;;;;5033354;28;20398;-71
2022/11/11 07:32:16;;;;;;;20.08;10.13;;;22.80;65.60;;;;;;5034031;28;20037;-71
2022/11/11 07:35:00;;;;;;;15.73;9.10;;;23.00;66.00;;;;;;5034085;28;20172;-69
2022/11/11 07:37:45;;;;;;;20.75;11.27;;;23.00;66.10;;;;;;5033982;28;20040;-71
2022/11/11 07:40:29;;;;;;;16.55;9.70;;;23.00;66.50;;;;;;5033938;28;20351;-70
2022/11/11 07:43:13;;;;;;;19.27;10.60;;;23.00;67.10;;;;;;5033449;28;20026;-71
2022/11/11 07:45:58;;;;;;;17.17;9.85;;;22.90;67.60;;;;;;5033669;28;20433;-71
2022/11/11 07:48:42;;;;;;;17.08;10.73;;;23.10;68.50;;;;;;5033640;28;20120;-69
2022/11/11 07:51:27;;;;;;;14.38;9.35;;;23.10;68.20;;;;;;5033742;28;20536;-70
2022/11/11 07:54:12;;;;;;;19.85;10.63;;;23.10;68.60;;;;;;5033611;28;20029;-70
2022/11/11 07:56:56;;;;;;;19.17;10.80;;;23.10;68.40;;;;;;5033595;28;20064;-69
2022/11/11 07:59:41;;;;;;;21.98;11.25;;;23.20;68.00;;;;;;5033721;28;20033;-69
2022/11/11 08:02:26;;;;;;;16.75;11.30;;;23.10;66.70;;;;;;5033415;28;20081;-70
2022/11/11 08:05:10;;;;;;;19.20;9.90;;;23.00;67.10;;;;;;5033588;28;20045;-69
2022/11/11 08:07:55;;;;;;;20.23;11.15;;;23.00;67.70;;;;;;5032790;28;20038;-69
2022/11/11 08:10:39;;;;;;;18.10;11.30;;;23.10;66.20;;;;;;5033380;28;20045;-72
2022/11/11 08:13:43;;;;;;;18.85;10.73;;;23.00;66.70;;;;;;5033402;28;20494;-70
2022/11/11 08:16:27;;;;;;;23.20;10.87;;;23.00;67.00;;;;;;5032374;28;20042;-70
2022/11/11 08:19:11;;;;;;;25.23;11.45;;;22.80;65.70;;;;;;5032733;28;20271;-72
2022/11/11 08:21:56;;;;;;;15.93;9.75;;;22.90;63.90;;;;;;5032984;28;20419;-72
2022/11/11 08:24:40;;;;;;;18.13;10.15;;;22.90;64.50;;;;;;5033339;28;20163;-71
2022/11/11 08:27:25;;;;;;;22.63;10.80;;;22.80;63.80;;;;;;5031197;28;20052;-68
2022/11/11 08:30:10;;;;;;;20.75;10.90;;;22.90;62.10;;;;;;5033030;28;20033;-69
2022/11/11 08:33:03;;;;;;;17.33;10.18;;;22.90;63.10;;;;;;5033758;28;20037;-70
2022/11/11 08:35:48;;;;;;;16.67;10.07;;;22.80;63.40;;;;;;5035467;28;20132;-68
2022/11/11 08:38:32;;;;;;;19.50;11.05;;;22.90;61.80;;;;;;5042316;28;20030;-69
2022/11/11 08:41:17;;;;;;;17.67;10.80;;;23.00;63.40;;;;;;5029309;28;20057;-70
2022/11/11 08:44:03;;;;;;;20.30;11.60;;;23.00;62.80;;;;;;5030173;28;20051;-70
2022/11/11 08:46:47;;;;;;;22.45;11.52;;;23.00;62.50;;;;;;5031918;28;20041;-69
2022/11/11 08:49:32;;;;;;;21.48;10.90;;;23.10;60.90;;;;;;5030981;28;20040;-68
2022/11/11 08:52:16;;;;;;;22.63;12.77;;;23.00;61.20;;;;;;5026280;28;20437;-68
2022/11/11 08:55:01;;;;;;;22.17;11.35;;;22.90;60.90;;;;;;5029462;28;20144;-69
2022/11/11 08:57:46;;;;;;;19.77;11.05;;;22.90;61.60;;;;;;5060932;28;20033;-70
2022/11/11 09:00:31;;;;;;;18.48;11.60;;;22.90;63.00;;;;;;5030537;28;20088;-70
2022/11/11 09:03:16;;;;;;;22.85;11.73;;;22.90;62.50;;;;;;5029821;28;20018;-73
2022/11/11 09:06:00;;;;;;;19.77;11.85;;;22.90;63.20;;;;;;5029555;28;20087;-72
2022/11/11 09:08:44;;;;;;;24.42;11.38;;;22.90;63.30;;;;;;5029750;28;20156;-70
2022/11/11 09:11:35;;;;;;;12.23;7.60;;;22.80;62.00;;;;;;5029266;28;20037;-70
2022/11/11 09:14:19;;;;;;;13.68;7.80;;;22.80;57.30;;;;;;5027838;28;20044;-71
2022/11/11 09:17:05;;;;;;;12.50;7.82;;;23.00;55.00;;;;;;5011596;28;20057;-71
2022/11/11 09:19:50;;;;;;;11.70;7.10;;;23.00;53.40;;;;;;5029860;28;20033;-73
2022/11/11 09:22:44;;;;;;;17.55;8.90;;;23.00;52.60;;;;;;5031691;28;20037;-70
2022/11/11 09:25:29;;;;;;;13.93;9.27;;;23.10;52.70;;;;;;5031341;28;20111;-72
2022/11/11 09:28:14;;;;;;;15.93;9.02;;;23.20;56.50;;;;;;5031819;28;20030;-73
2022/11/11 09:30:59;;;;;;;20.52;11.07;;;23.40;58.40;;;;;;5030762;28;20037;-71
2022/11/11 09:33:44;;;;;;;18.75;11.30;;;23.60;59.30;;;;;;5031679;28;20040;-72
2022/11/11 09:36:28;;;;;;;25.60;12.55;;;23.50;59.60;;;;;;5037076;28;20128;-71
2022/11/11 09:39:13;;;;;;;25.10;11.77;;;23.60;57.30;;;;;;5031894;28;20030;-70
2022/11/11 09:42:29;;;;;;;17.77;11.20;;;23.60;60.00;;;;;;5031578;28;20128;-71
2022/11/11 09:45:22;;;;;;;20.88;12.90;;;23.40;57.90;;;;;;5031639;28;20048;-71
2022/11/11 09:48:31;;;;;;;13.20;8.10;;;23.50;59.50;;;;;;5031634;28;20470;-72
2022/11/11 09:51:22;;;;;;;15.02;9.35;;;23.50;57.60;;;;;;5031714;28;20121;-69
2022/11/11 09:54:12;;;;;;;19.20;11.25;;;23.60;54.70;;;;;;5031328;28;20033;-69
2022/11/11 09:57:00;;;;;;;19.13;11.70;;;23.60;58.20;;;;;;5031599;28;20049;-69
2022/11/11 09:59:51;;;;;;;18.92;11.60;;;23.80;58.70;;;;;;5031433;28;20124;-71
2022/11/11 10:03:13;;;;;;;17.08;10.02;;;23.80;57.20;;;;;;5031040;28;20120;-69
2022/11/11 10:06:19;;;;;;;22.48;12.23;;;23.70;58.80;;;;;;5031550;28;20040;-70
2022/11/11 10:09:33;;;;;;;22.73;11.48;;;23.60;58.10;;;;;;5030678;28;20118;-69
2022/11/11 10:12:20;;;;;;;21.75;12.02;;;23.70;58.50;;;;;;5008619;28;20046;-70
2022/11/11 10:15:12;;;;;;;21.23;12.18;;;23.50;57.40;;;;;;5008970;28;20042;-69
2022/11/11 10:18:08;;;;;;;17.77;11.75;;;23.50;58.20;;;;;;5008732;28;20030;-69
2022/11/11 10:20:54;;;;;;;21.55;12.00;;;23.60;57.90;;;;;;5008763;28;20049;-70
2022/11/11 10:23:39;;;;;;;20.25;12.23;;;23.50;56.40;;;;;;5006570;28;20404;-72
2022/11/11 10:26:39;;;;;;;20.95;10.52;;;23.50;57.70;;;;;;5009038;28;20483;-68
2022/11/11 10:29:30;;;;;;;19.55;10.85;;;23.50;57.80;;;;;;5008485;28;20141;-71
2022/11/11 10:32:19;;;;;;;22.90;13.32;;;23.50;60.20;;;;;;5011683;28;20184;-70
2022/11/11 10:35:38;;;;;;;22.02;9.35;;;23.40;56.10;;;;;;5012884;28;20034;-70
2022/11/11 10:38:31;;;;;;;21.67;12.75;;;23.40;57.50;;;;;;4954532;29;20074;-69
2022/11/11 10:41:20;;;;;;;19.05;11.15;;;23.30;57.30;;;;;;4970655;28;20050;-70
2022/11/11 10:44:37;;;;;;;25.88;12.23;;;23.40;58.50;;;;;;4973322;28;20035;-72
2022/11/11 10:47:52;;;;;;;16.95;8.50;;;23.60;60.90;;;;;;4973619;28;20118;-68
2022/11/11 10:50:48;;;;;;;19.23;11.20;;;24.10;68.90;;;;;;5012408;28;20506;-71
2022/11/11 10:53:43;;;;;;;19.60;12.27;;;24.70;66.80;;;;;;5012402;28;20437;-72
2022/11/11 10:56:48;;;;;;;14.45;10.15;;;24.90;56.00;;;;;;5012621;28;20033;-72
2022/11/11 10:59:48;;;;;;;16.08;12.65;;;24.70;55.60;;;;;;5012122;28;20038;-71
2022/11/11 11:02:53;;;;;;;18.83;11.75;;;24.70;56.00;;;;;;5012140;28;20070;-71
2022/11/11 11:06:05;;;;;;;14.02;9.77;;;24.80;57.70;;;;;;5012393;28;20137;-71
2022/11/11 11:08:56;;;;;;;21.58;12.43;;;24.80;57.60;;;;;;5012131;28;20069;-70
2022/11/11 11:11:54;;;;;;;14.52;10.60;;;24.80;51.90;;;;;;5012394;28;20126;-70
2022/11/11 11:14:42;;;;;;;18.65;12.00;;;24.70;54.60;;;;;;5031448;28;20042;-71
2022/11/11 11:17:50;;;;;;;20.50;9.63;;;24.70;59.00;;;;;;5034297;28;20045;-71
2022/11/11 11:20:35;;;;;;;14.98;10.23;;;24.70;59.00;;;;;;4991211;28;20764;-70
2022/11/11 11:23:41;;;;;;;18.13;10.20;;;24.80;61.20;;;;;;4972998;28;20120;-71
2022/11/11 11:26:43;;;;;;;22.48;10.85;;;24.80;58.80;;;;;;4934422;29;20435;-72
2022/11/11 11:29:41;;;;;;;19.95;11.77;;;24.80;58.80;;;;;;4934366;29;20074;-71
2022/11/11 11:32:30;;;;;;;21.63;12.30;;;24.70;55.40;;;;;;4934415;29;20123;-69
2022/11/11 11:35:44;;;;;;;17.85;11.13;;;24.70;57.50;;;;;;4934704;28;20036;-70
2022/11/11 11:38:39;;;;;;;;;;;24.50;56.10;;;;;;4913165;29;20048;-71
2022/11/11 11:41:41;;;;;;;20.60;11.00;;;24.60;57.00;;;;;;4896514;29;19919;-70
2022/11/11 11:44:33;;;;;;;15.13;9.25;;;24.50;57.00;;;;;;4895355;29;20104;-71
2022/11/11 11:47:44;;;;;;;16.27;9.52;;;24.50;58.10;;;;;;4896517;29;20037;-71
2022/11/11 11:51:16;;;;;;;13.55;9.13;;;24.40;58.50;;;;;;4896107;29;20131;-70
2022/11/11 11:54:19;;;;;;;17.15;10.50;;;24.30;58.90;;;;;;4896035;29;20032;-71
2022/11/11 11:57:32;;;;;;;13.93;8.50;;;24.40;58.90;;;;;;4902477;29;20051;-71
2022/11/11 12:00:19;;;;;;;14.13;9.60;;;24.50;59.40;;;;;;4914881;29;20028;-71
2022/11/11 12:03:35;;;;;;;13.57;9.75;;;24.50;58.40;;;;;;4938483;28;20825;-71
2022/11/11 12:06:35;;;;;;;16.92;10.10;;;24.50;59.50;;;;;;4972454;28;20035;-70
2022/11/11 12:09:40;;;;;;;17.02;10.02;;;24.40;59.00;;;;;;4972144;28;20062;-71
2022/11/11 12:12:40;;;;;;;15.80;8.90;;;24.30;59.30;;;;;;4972158;28;20038;-71
2022/11/11 12:15:34;;;;;;;16.08;10.25;;;24.40;58.80;;;;;;5005257;28;20053;-72
2022/11/11 12:18:43;;;;;;;15.52;10.13;;;24.40;59.00;;;;;;5027592;28;20076;-71
2022/11/11 12:22:13;;;;;;;19.77;8.75;;;24.40;58.70;;;;;;5045161;28;20045;-73
2022/11/11 12:25:35;;;;;;;16.42;10.20;;;24.30;57.00;;;;;;4990472;28;20142;-72
2022/11/11 12:28:50;;;;;;;18.75;11.45;;;24.20;54.50;;;;;;4990969;28;20085;-73
2022/11/11 12:31:48;;;;;;;18.60;10.90;;;24.00;56.40;;;;;;4990855;28;20038;-71
2022/11/11 12:34:49;;;;;;;12.80;8.20;;;23.80;57.90;;;;;;4990146;28;20042;-68
2022/11/11 12:37:43;;;;;;;9.77;3.85;;;23.80;60.40;;;;;;4990820;28;20042;-69
2022/11/11 12:40:36;;;;;;;3.78;2.35;;;23.90;59.80;;;;;;4990942;28;20184;-69
2022/11/11 12:43:41;;;;;;;18.13;8.05;;;23.90;58.10;;;;;;4991045;28;20109;-70
2022/11/11 12:46:26;;;;;;;16.90;8.85;;;24.00;56.70;;;;;;4990729;28;20049;-69
2022/11/11 12:49:48;;;;;;;12.75;8.48;;;23.90;56.00;;;;;;4990845;28;20077;-67
2022/11/11 12:52:47;;;;;;;14.23;7.03;;;24.00;57.10;;;;;;4990863;28;20070;-68
2022/11/11 12:56:13;;;;;;;20.95;10.48;;;24.00;57.00;;;;;;4990370;28;20180;-70
2022/11/11 12:59:12;;;;;;;13.43;8.20;;;24.00;55.40;;;;;;4894443;29;20032;-71
2022/11/11 13:02:31;;;;;;;15.52;9.27;;;24.00;55.80;;;;;;4935196;29;20051;-70
2022/11/11 13:05:33;;;;;;;12.77;3.60;;;23.90;55.00;;;;;;4904759;29;20625;-69
2022/11/11 13:08:46;;;;;;;2.53;2.30;;;24.00;54.00;;;;;;4906138;29;20042;-69
2022/11/11 13:11:57;;;;;;;10.90;6.45;;;24.00;54.90;;;;;;4906854;29;20071;-70
2022/11/11 13:15:02;;;;;;;2.15;1.95;;;24.10;58.20;;;;;;4909157;29;20509;-68
2022/11/11 13:17:46;;;;;;;13.88;6.38;;;24.30;60.40;;;;;;4908054;29;20064;-70
2022/11/11 13:20:51;;;;;;;7.75;4.82;;;24.50;57.40;;;;;;4903759;29;20533;-71
2022/11/11 13:23:36;;;;;;;8.93;5.30;;;24.70;55.40;;;;;;4905047;29;20048;-69
2022/11/11 13:26:27;;;;;;;9.70;4.47;;;24.80;55.80;;;;;;4901250;29;20115;-71
2022/11/11 13:29:57;;;;;;;9.73;3.55;;;24.90;54.00;;;;;;4904588;29;20131;-72
2022/11/11 13:32:53;;;;;;;11.45;6.85;;;24.80;55.60;;;;;;4903729;29;20047;-72
2022/11/11 13:35:44;;;;;;;15.82;8.18;;;24.80;51.20;;;;;;4993376;28;20095;-69
2022/11/11 13:38:43;;;;;;;12.82;6.05;;;24.70;53.40;;;;;;4988499;28;20044;-71
2022/11/11 13:41:34;;;;;;;15.18;9.50;;;24.70;55.50;;;;;;5010822;28;20068;-71
2022/11/11 13:44:29;;;;;;;14.10;7.72;;;24.70;55.30;;;;;;5028848;28;20082;-72
2022/11/11 13:47:43;;;;;;;13.27;8.52;;;24.90;54.70;;;;;;5030414;28;20017;-70
2022/11/11 13:50:36;;;;;;;13.07;8.05;;;25.10;53.40;;;;;;5047106;28;20449;-70
2022/11/11 13:53:29;;;;;;;12.07;8.85;;;25.20;53.40;;;;;;5046150;28;20044;-71
2022/11/11 13:56:43;;;;;;;14.32;9.65;;;25.30;58.00;;;;;;5047607;28;20033;-72
2022/11/11 13:59:31;;;;;;;8.18;4.93;;;25.30;53.10;;;;;;5047934;28;20063;-69
2022/11/11 14:02:19;;;;;;;3.13;2.83;;;25.30;56.80;;;;;;5045509;28;20455;-67
2022/11/11 14:05:04;;;;;;;1.63;1.52;;;25.40;64.80;;;;;;5047604;28;20064;-68
2022/11/11 14:07:53;;;;;;;16.73;11.63;;;25.40;62.50;;;;;;5046204;28;20140;-71
2022/11/11 14:10:48;;;;;;;22.35;12.27;;;25.40;55.90;;;;;;5046840;28;20485;-72
2022/11/11 14:13:35;;;;;;;16.83;10.82;;;25.30;56.10;;;;;;5045683;28;20052;-71
2022/11/11 14:16:34;;;;;;;20.52;11.65;;;25.40;56.40;;;;;;5048460;28;20040;-71
2022/11/11 14:19:19;;;;;;;19.98;12.02;;;25.30;57.50;;;;;;5048412;28;20076;-70
2022/11/11 14:22:31;;;;;;;15.35;10.38;;;25.30;60.60;;;;;;5048581;28;20076;-70
2022/11/11 14:25:26;;;;;;;14.85;10.48;;;25.40;52.60;;;;;;4989163;28;20046;-71
2022/11/11 14:28:21;;;;;;;20.60;11.57;;;25.30;53.60;;;;;;4989338;28;20034;-71
2022/11/11 14:31:12;;;;;;;21.23;11.52;;;25.30;53.40;;;;;;4989509;28;20084;-71
2022/11/11 14:34:05;;;;;;;26.00;12.27;;;25.40;54.60;;;;;;4989458;28;20137;-71
2022/11/11 14:37:04;;;;;;;18.67;10.25;;;25.40;55.20;;;;;;4988979;28;20049;-71
2022/11/11 14:39:54;;;;;;;18.90;11.55;;;25.50;55.00;;;;;;4989043;28;20034;-70
2022/11/11 14:42:40;;;;;;;18.75;10.48;;;25.40;54.70;;;;;;4988911;28;20070;-71
2022/11/11 14:45:28;;;;;;;15.23;10.40;;;25.30;53.20;;;;;;4989005;28;20157;-69
2022/11/11 14:48:50;;;;;;;18.83;12.13;;;25.30;53.00;;;;;;4989017;28;20126;-70
2022/11/11 14:52:22;;;;;;;21.73;12.40;;;25.40;55.40;;;;;;4989050;28;20069;-69
2022/11/11 14:55:09;;;;;;;19.08;11.02;;;25.50;58.90;;;;;;4969616;28;20046;-68
2022/11/11 14:57:54;;;;;;;19.23;11.57;;;25.60;56.90;;;;;;4953260;28;20511;-68
2022/11/11 15:01:18;;;;;;;17.65;10.80;;;25.60;56.00;;;;;;4970220;28;20059;-68
2022/11/11 15:04:04;;;;;;;17.83;10.30;;;25.60;60.00;;;;;;4950417;28;20452;-71
2022/11/11 15:07:24;;;;;;;17.25;11.00;;;25.70;53.60;;;;;;4950221;29;20043;-69
2022/11/11 15:10:24;;;;;;;18.75;11.38;;;25.60;56.20;;;;;;4870731;29;20053;-68
2022/11/11 15:13:17;;;;;;;21.17;10.70;;;25.60;52.80;;;;;;4871607;29;20816;-68
2022/11/11 15:16:05;;;;;;;18.58;10.73;;;25.60;50.30;;;;;;4874466;29;20100;-69
2022/11/11 15:19:09;;;;;;;15.05;10.77;;;25.60;49.40;;;;;;4876184;29;20056;-68
2022/11/11 15:22:23;;;;;;;16.17;9.88;;;25.50;50.00;;;;;;4877950;29;20160;-69
2022/11/11 15:25:16;;;;;;;14.80;10.48;;;25.50;52.70;;;;;;4877704;29;20134;-70
2022/11/11 15:28:01;;;;;;;17.23;9.95;;;25.60;54.10;;;;;;4880568;29;20079;-69
2022/11/11 15:30:57;;;;;;;18.20;9.95;;;25.50;50.00;;;;;;4894833;29;20506;-72
2022/11/11 15:34:19;;;;;;;15.23;10.50;;;25.60;50.50;;;;;;4895705;29;20574;-72
2022/11/11 15:37:16;;;;;;;15.95;11.73;;;25.60;53.00;;;;;;4893573;29;20463;-70
2022/11/11 15:40:03;;;;;;;17.33;10.52;;;25.50;52.30;;;;;;4921474;29;20051;-71
2022/11/11 15:42:50;;;;;;;17.55;10.73;;;25.60;56.00;;;;;;4948119;28;20051;-70